Prague, OK (74864)

2:51 AM CDT on April 27, 2017 (GMT -0500)
West Paden | | Change Station

Elev 979 ft 35.51 °N, 96.59 °W | Updated 0 second ago

Clear
Clear
40.2 °F
Feels Like 40 °F
N
2.0
Wind Variable Wind from SW

Today
High -- | Low -- °F
--% Chance of Precip.
Yesterday
High -- | Low -- °F
Precip. -- in
Pressure 29.77 in
Visibility 10.0 miles
Clouds Clear
Windchill 40 °F
Dew Point 40 °F
Humidity 98%
Rainfall 0.00 in
Snow Depth Not available.
6:39 AM 8:10 PM
New Moon, 1% visible
METAR KSNL 270735Z AUTO 21003KT 10SM CLR 04/04 A2977 RMK AO2 T00400035
Pressure 29.77 in
Visibility 10.0 miles
Clouds Clear
Windchill 40 °F
Dew Point 40 °F
Humidity 98%
Rainfall 0.00 in
Snow Depth Not available.
6:39 AM 8:10 PM
New Moon, 1% visible
METAR KSNL 270735Z AUTO 21003KT 10SM CLR 04/04 A2977 RMK AO2 T00400035

Get Severe Weather Alerts

Thanks for signing up!

Be on the lookout for a verification email in your inbox.

You'll start receiving the daily forecast at 8 AM.

×

10-Day Weather Forecast

Almanac

Astronomy

Apr. 27, 2017 Rise Set
Actual Time
Civil Twilight
Nautical Twilight
Astronomical Twilight
Moon
Length of Visible Light
Length of Day
Tomorrow will be .
, % of the Moon is Illuminated

Today's Extremes

State Highs State Lows

Community

WunderPhotos

WunderBlog® & News

Nearby

Air Quality

  Air Quality AQ Index Pollutant
Not available.

Snow Depth

Station Depth Elevation

Earthquake Activity

City Distance Mag. Time & Date
Minimum magnitude displayed is 2.5.

Coastal Water Temperatures

Place Temperature

Stations

Nearby Weather Stations

Station Location Temp. Windchill Dew Point Humidity Wind Precip. Elev Updated Type
                   

Watches & Warnings

There are currently no watches in effect.